createdAt,value
2023-05-02T00:00:52.805Z,13.40
2023-05-02T00:03:19.686Z,11.83
2023-05-02T00:05:46.490Z,13.87
2023-05-02T00:08:13.348Z,13.17
2023-05-02T00:10:40.115Z,14.60
2023-05-02T00:13:07.049Z,13.67
2023-05-02T00:15:33.837Z,12.67
2023-05-02T00:18:00.944Z,14.73
2023-05-02T00:20:27.660Z,12.40
2023-05-02T00:22:56.341Z,13.00
2023-05-02T00:25:23.626Z,13.80
2023-05-02T00:27:51.229Z,14.80
2023-05-02T00:30:18.620Z,11.80
2023-05-02T00:32:45.821Z,12.70
2023-05-02T00:35:12.885Z,14.60
2023-05-02T00:37:39.687Z,14.30
2023-05-02T00:40:08.173Z,15.80
2023-05-02T00:42:36.310Z,13.97
2023-05-02T00:45:06.855Z,15.80
2023-05-02T00:47:34.382Z,15.30
2023-05-02T00:50:01.915Z,16.43
2023-05-02T00:52:29.339Z,16.13
2023-05-02T00:54:56.514Z,16.93
2023-05-02T00:57:23.474Z,17.63
2023-05-02T00:59:51.105Z,17.47
2023-05-02T01:02:37.941Z,18.53
2023-05-02T01:05:33.855Z,18.10
2023-05-02T01:08:25.988Z,18.63
2023-05-02T01:11:39.617Z,17.90
2023-05-02T01:14:11.222Z,19.50
2023-05-02T01:16:43.628Z,21.10
2023-05-02T01:19:19.804Z,21.13
2023-05-02T01:21:48.505Z,20.20
2023-05-02T01:24:59.887Z,21.70
2023-05-02T01:27:51.179Z,21.87
2023-05-02T01:30:20.189Z,23.57
2023-05-02T01:32:48.683Z,21.77
2023-05-02T01:35:17.076Z,25.17
2023-05-02T01:37:46.871Z,23.60
2023-05-02T01:40:17.871Z,22.47
2023-05-02T01:42:46.618Z,22.63
2023-05-02T01:45:14.265Z,23.73
2023-05-02T01:47:43.697Z,23.90
2023-05-02T01:50:15.987Z,24.50
2023-05-02T01:52:44.277Z,24.80
2023-05-02T01:55:15.225Z,24.60
2023-05-02T01:57:44.901Z,24.20
2023-05-02T02:00:13.547Z,24.93
2023-05-02T02:02:42.456Z,24.97
2023-05-02T02:05:10.689Z,26.37
2023-05-02T02:07:37.752Z,27.30
2023-05-02T02:10:04.936Z,29.50
2023-05-02T02:12:38.571Z,29.40
2023-05-02T02:15:27.466Z,32.90
2023-05-02T02:18:04.130Z,32.27
2023-05-02T02:20:32.411Z,33.80
2023-05-02T02:23:03.245Z,31.73
2023-05-02T02:25:30.383Z,30.97
2023-05-02T02:27:58.060Z,30.20
2023-05-02T02:30:24.840Z,29.90
2023-05-02T02:32:51.652Z,30.07
2023-05-02T02:35:18.622Z,29.03
2023-05-02T02:37:50.056Z,27.80
2023-05-02T02:40:31.524Z,23.40
2023-05-02T02:43:21.428Z,25.57
2023-05-02T02:46:11.763Z,25.80
2023-05-02T02:48:58.814Z,24.57
2023-05-02T02:51:44.048Z,24.03
2023-05-02T02:54:33.384Z,24.67
2023-05-02T02:57:29.055Z,25.53
2023-05-02T03:00:07.085Z,20.90
2023-05-02T03:02:37.018Z,24.20
2023-05-02T03:05:05.552Z,23.80
2023-05-02T03:07:33.149Z,24.67
2023-05-02T03:10:04.565Z,22.77
2023-05-02T03:12:31.556Z,22.77
2023-05-02T03:15:14.858Z,22.23
2023-05-02T03:17:41.657Z,19.37
2023-05-02T03:20:08.636Z,20.47
2023-05-02T03:22:35.359Z,20.37
2023-05-02T03:25:02.429Z,19.13
2023-05-02T03:27:29.171Z,19.07
2023-05-02T03:29:55.838Z,16.70
2023-05-02T03:32:22.708Z,18.10
2023-05-02T03:34:49.673Z,17.07
2023-05-02T03:37:16.440Z,16.70
2023-05-02T03:39:44.424Z,15.40
2023-05-02T03:42:11.137Z,16.60
2023-05-02T03:44:37.845Z,15.07
2023-05-02T03:47:04.728Z,12.90
2023-05-02T03:49:33.981Z,11.97
2023-05-02T03:52:01.021Z,11.80
2023-05-02T03:54:27.858Z,11.00
2023-05-02T03:56:54.974Z,11.80
2023-05-02T03:59:21.832Z,10.43
2023-05-02T04:01:51.671Z,11.50
2023-05-02T04:04:18.561Z,12.83
2023-05-02T04:06:45.537Z,12.20
2023-05-02T04:09:12.347Z,13.07
2023-05-02T04:11:39.030Z,11.50
2023-05-02T04:14:05.856Z,12.87
2023-05-02T04:16:32.606Z,12.03
2023-05-02T04:18:59.691Z,11.90
2023-05-02T04:21:26.358Z,11.03
2023-05-02T04:23:53.480Z,11.83
2023-05-02T04:26:20.161Z,11.23
2023-05-02T04:28:46.856Z,12.33
2023-05-02T04:31:13.625Z,11.73
2023-05-02T04:33:40.335Z,10.10
2023-05-02T04:36:07.324Z,11.70
2023-05-02T04:38:34.207Z,11.60
2023-05-02T04:41:08.608Z,11.17
2023-05-02T04:43:35.962Z,11.50
2023-05-02T04:46:02.948Z,11.80
2023-05-02T04:48:29.825Z,10.87
2023-05-02T04:50:56.576Z,11.97
2023-05-02T04:53:23.873Z,12.27
2023-05-02T04:55:51.206Z,11.33
2023-05-02T04:58:18.081Z,12.40
2023-05-02T05:00:44.823Z,14.83
2023-05-02T05:03:11.857Z,12.00
2023-05-02T05:05:38.923Z,12.30
2023-05-02T05:08:05.680Z,12.23
2023-05-02T05:10:32.485Z,11.10
2023-05-02T05:12:59.224Z,12.10
2023-05-02T05:15:27.297Z,11.10
2023-05-02T05:17:54.031Z,12.13
2023-05-02T05:20:20.718Z,11.17
2023-05-02T05:22:47.464Z,13.77
2023-05-02T05:25:14.960Z,11.73
2023-05-02T05:27:41.807Z,13.70
2023-05-02T05:30:09.081Z,12.27
2023-05-02T05:32:35.936Z,13.30
2023-05-02T05:35:02.933Z,12.70
2023-05-02T05:37:29.599Z,11.80
2023-05-02T05:39:56.274Z,14.43
2023-05-02T05:42:22.978Z,13.13
2023-05-02T05:44:49.668Z,9.97
2023-05-02T05:47:22.715Z,8.53
2023-05-02T05:49:56.692Z,6.20
2023-05-02T05:52:23.484Z,6.97
2023-05-02T05:54:53.263Z,6.83
2023-05-02T05:57:20.190Z,6.40
2023-05-02T05:59:47.168Z,5.50
2023-05-02T06:02:15.523Z,4.47
2023-05-02T06:04:42.247Z,6.07
2023-05-02T06:07:09.136Z,5.30
2023-05-02T06:09:36.473Z,5.50
2023-05-02T06:12:03.350Z,5.40
2023-05-02T06:14:30.057Z,5.17
2023-05-02T06:16:59.505Z,4.30
2023-05-02T06:19:26.214Z,4.17
2023-05-02T06:21:52.964Z,3.93
2023-05-02T06:24:19.657Z,4.67
2023-05-02T06:26:46.415Z,3.80
2023-05-02T06:29:13.848Z,3.73
2023-05-02T06:31:40.631Z,3.90
2023-05-02T06:34:07.894Z,4.40
2023-05-02T06:36:34.641Z,4.17
2023-05-02T06:39:01.716Z,4.40
2023-05-02T06:41:28.423Z,3.90
2023-05-02T06:43:55.860Z,4.63
2023-05-02T06:46:22.737Z,4.90
2023-05-02T06:48:49.589Z,4.83
2023-05-02T06:51:16.420Z,5.60
2023-05-02T06:53:44.386Z,5.20
2023-05-02T06:56:11.085Z,5.27
2023-05-02T06:58:37.798Z,5.17
2023-05-02T07:01:04.529Z,5.17
2023-05-02T07:03:31.286Z,4.73
2023-05-02T07:05:58.090Z,5.60
2023-05-02T07:08:24.904Z,5.20
2023-05-02T07:10:52.087Z,4.73
2023-05-02T07:13:18.831Z,5.10
2023-05-02T07:15:45.534Z,6.20
2023-05-02T07:18:12.396Z,4.50
2023-05-02T07:20:41.466Z,4.80
2023-05-02T07:23:09.256Z,4.57
2023-05-02T07:25:36.796Z,5.20
2023-05-02T07:28:03.741Z,4.93
2023-05-02T07:30:30.625Z,5.60
2023-05-02T07:32:57.502Z,5.10
2023-05-02T07:35:24.262Z,5.43
2023-05-02T07:37:50.981Z,5.73
2023-05-02T07:40:18.262Z,6.73
2023-05-02T07:42:44.921Z,5.90
2023-05-02T07:45:11.711Z,6.00
2023-05-02T07:47:38.657Z,5.30
2023-05-02T07:50:06.432Z,5.20
2023-05-02T07:52:33.209Z,4.87
2023-05-02T07:54:59.917Z,4.30
2023-05-02T07:57:26.815Z,3.67
2023-05-02T07:59:53.656Z,3.70
2023-05-02T08:02:21.649Z,4.30
2023-05-02T08:04:49.171Z,3.13
2023-05-02T08:07:16.606Z,3.07
2023-05-02T08:09:43.285Z,2.10
2023-05-02T08:12:10.111Z,1.57
2023-05-02T08:14:36.833Z,1.70
2023-05-02T08:17:03.515Z,1.63
2023-05-02T08:19:30.270Z,1.53
2023-05-02T08:21:57.036Z,1.63
2023-05-02T08:24:23.784Z,1.40
2023-05-02T08:26:50.819Z,1.40
2023-05-02T08:29:17.543Z,1.77
2023-05-02T08:31:44.364Z,1.83
2023-05-02T08:34:11.241Z,1.23
2023-05-02T08:36:38.024Z,1.60
2023-05-02T08:39:04.793Z,1.67
2023-05-02T08:41:31.566Z,2.00
2023-05-02T08:43:59.861Z,2.10
2023-05-02T08:46:28.551Z,3.10
2023-05-02T08:48:59.069Z,2.77
2023-05-02T08:51:28.965Z,4.50
2023-05-02T08:53:57.188Z,3.20
2023-05-02T08:56:25.209Z,3.03
2023-05-02T08:58:52.239Z,2.83
2023-05-02T09:01:22.687Z,4.57
2023-05-02T09:03:50.389Z,4.40
2023-05-02T09:06:20.525Z,2.90
2023-05-02T09:08:50.317Z,3.23
2023-05-02T09:11:21.592Z,3.23
2023-05-02T09:13:52.621Z,2.97
2023-05-02T09:16:25.328Z,3.33
2023-05-02T09:18:54.014Z,4.07
2023-05-02T09:21:22.813Z,3.30
2023-05-02T09:23:58.054Z,3.40
2023-05-02T09:26:33.445Z,2.97
2023-05-02T09:29:02.750Z,3.40
2023-05-02T09:31:54.351Z,4.17
2023-05-02T09:34:21.071Z,3.40
2023-05-02T09:36:51.357Z,3.13
2023-05-02T09:39:25.443Z,3.27
2023-05-02T09:41:52.995Z,3.00
2023-05-02T09:44:22.539Z,3.37
2023-05-02T09:46:54.826Z,2.47
2023-05-02T09:49:41.763Z,2.90
2023-05-02T09:52:12.580Z,7.53
2023-05-02T09:54:39.353Z,2.80
2023-05-02T09:57:07.574Z,2.80
2023-05-02T09:59:34.451Z,3.03
2023-05-02T10:02:03.800Z,3.13
2023-05-02T10:04:32.462Z,2.90
2023-05-02T10:07:00.186Z,2.63
2023-05-02T10:09:28.217Z,2.53
2023-05-02T10:11:56.608Z,3.20
2023-05-02T10:14:27.759Z,3.20
2023-05-02T10:17:09.034Z,2.80
2023-05-02T10:19:44.873Z,3.33
2023-05-02T10:22:13.238Z,2.80
2023-05-02T10:24:41.453Z,3.83
2023-05-02T10:27:08.780Z,3.57
2023-05-02T10:29:37.121Z,3.30
2023-05-02T10:32:04.790Z,3.00
2023-05-02T10:34:34.020Z,3.60
2023-05-02T10:37:02.016Z,3.23
2023-05-02T10:39:30.059Z,3.20
2023-05-02T10:41:59.282Z,3.27
2023-05-02T10:44:36.727Z,3.83
2023-05-02T10:47:20.211Z,2.70
2023-05-02T10:49:57.932Z,3.17
2023-05-02T10:52:33.135Z,3.33
2023-05-02T10:55:20.469Z,3.83
2023-05-02T10:58:02.228Z,3.50
2023-05-02T11:00:31.394Z,4.00
2023-05-02T11:02:58.396Z,3.50
2023-05-02T11:05:26.393Z,3.20
2023-05-02T11:08:22.981Z,5.00
2023-05-02T11:10:50.330Z,4.90
2023-05-02T11:13:36.966Z,2.90
2023-05-02T11:16:03.983Z,4.17
2023-05-02T11:19:00.936Z,3.40
2023-05-02T11:21:32.812Z,4.40
2023-05-02T11:24:41.529Z,3.70
2023-05-02T11:27:30.521Z,4.80
2023-05-02T11:29:58.920Z,2.70
2023-05-02T11:32:46.840Z,3.40
2023-05-02T11:35:27.233Z,3.40
2023-05-02T11:38:02.013Z,3.23
2023-05-02T11:40:29.743Z,3.70
2023-05-02T11:42:58.973Z,3.57
2023-05-02T11:45:39.207Z,3.57
2023-05-02T11:48:07.220Z,3.60
2023-05-02T11:50:50.322Z,5.13
2023-05-02T11:53:24.447Z,4.43
2023-05-02T11:55:56.677Z,4.03
2023-05-02T11:58:32.588Z,4.10
2023-05-02T12:01:13.193Z,4.73
2023-05-02T12:03:40.838Z,4.70
2023-05-02T12:06:15.403Z,4.17
2023-05-02T12:08:45.603Z,4.07
2023-05-02T12:11:16.645Z,4.57
2023-05-02T12:13:48.377Z,5.23
2023-05-02T12:16:15.960Z,4.20
2023-05-02T12:18:43.298Z,4.00
2023-05-02T12:21:10.424Z,3.30
2023-05-02T12:23:37.932Z,3.70
2023-05-02T12:26:30.815Z,4.00
2023-05-02T12:28:58.960Z,3.80
2023-05-02T12:31:27.329Z,3.87
2023-05-02T12:33:57.566Z,4.67
2023-05-02T12:36:25.131Z,4.30
2023-05-02T12:38:53.719Z,5.00
2023-05-02T12:41:38.237Z,4.07
2023-05-02T12:44:06.322Z,3.47
2023-05-02T12:46:33.158Z,3.40
2023-05-02T12:49:10.746Z,3.10
2023-05-02T12:51:39.084Z,3.20
2023-05-02T12:54:06.867Z,3.00
2023-05-02T12:56:40.794Z,3.23
2023-05-02T12:59:08.144Z,3.50
2023-05-02T13:01:35.577Z,3.13
2023-05-02T13:04:02.968Z,3.13
2023-05-02T13:06:29.884Z,4.20
2023-05-02T13:08:57.113Z,3.30
2023-05-02T13:11:24.580Z,2.87
2023-05-02T13:13:51.367Z,3.50
2023-05-02T13:16:18.421Z,3.37
2023-05-02T13:18:47.684Z,3.17
2023-05-02T13:21:14.849Z,2.80
2023-05-02T13:23:41.749Z,3.43
2023-05-02T13:26:09.000Z,3.60
2023-05-02T13:28:37.428Z,3.60
2023-05-02T13:31:04.556Z,3.00
2023-05-02T13:33:31.395Z,3.30
2023-05-02T13:35:58.078Z,3.83
2023-05-02T13:38:25.314Z,3.07
2023-05-02T13:40:52.344Z,2.80
2023-05-02T13:43:19.703Z,2.83
2023-05-02T13:45:48.779Z,3.27
2023-05-02T13:48:15.930Z,3.33
2023-05-02T13:50:42.771Z,2.90
2023-05-02T13:53:09.640Z,3.40
2023-05-02T13:55:36.362Z,3.40
2023-05-02T13:58:03.105Z,3.00
2023-05-02T14:00:30.089Z,3.13
2023-05-02T14:02:57.017Z,2.97
2023-05-02T14:05:23.881Z,3.70
2023-05-02T14:07:50.823Z,4.23
2023-05-02T14:10:17.804Z,4.20
2023-05-02T14:12:44.519Z,3.10
2023-05-02T14:15:11.808Z,3.27
2023-05-02T14:17:38.572Z,3.20
2023-05-02T14:20:06.237Z,3.50
2023-05-02T14:22:33.161Z,3.70
2023-05-02T14:25:00.014Z,3.87
2023-05-02T14:27:26.869Z,3.73
2023-05-02T14:29:53.661Z,3.60
2023-05-02T14:32:20.405Z,3.40
2023-05-02T14:34:47.196Z,3.57
2023-05-02T14:37:13.880Z,4.57
2023-05-02T14:39:42.486Z,3.57
2023-05-02T14:42:09.293Z,4.00
2023-05-02T14:44:36.054Z,4.17
2023-05-02T14:47:03.187Z,3.90
2023-05-02T14:49:29.942Z,3.63
2023-05-02T14:51:58.392Z,3.70
2023-05-02T14:54:30.310Z,4.00
2023-05-02T14:56:57.860Z,3.90
2023-05-02T14:59:24.764Z,3.70
2023-05-02T15:01:52.918Z,4.00
2023-05-02T15:04:20.085Z,4.50
2023-05-02T15:06:48.161Z,3.77
2023-05-02T15:09:16.012Z,4.13
2023-05-02T15:11:43.695Z,4.17
2023-05-02T15:14:10.523Z,4.00
2023-05-02T15:16:37.455Z,4.77
2023-05-02T15:19:04.253Z,5.00
2023-05-02T15:21:31.002Z,4.03
2023-05-02T15:23:57.892Z,3.90
2023-05-02T15:26:26.017Z,4.07
2023-05-02T15:28:52.924Z,4.50
2023-05-02T15:31:19.824Z,4.93
2023-05-02T15:33:46.566Z,4.67
2023-05-02T15:36:14.182Z,4.83
2023-05-02T15:38:43.103Z,5.27
2023-05-02T15:41:12.898Z,4.10
2023-05-02T15:43:39.739Z,5.70
2023-05-02T15:46:06.551Z,4.50
2023-05-02T15:48:34.657Z,5.53
2023-05-02T15:51:02.287Z,4.73
2023-05-02T15:53:29.352Z,4.60
2023-05-02T15:55:56.093Z,5.27
2023-05-02T15:58:22.864Z,4.40
2023-05-02T16:00:49.840Z,4.50
2023-05-02T16:03:16.591Z,4.60
2023-05-02T16:05:43.628Z,4.70
2023-05-02T16:08:10.450Z,5.30
2023-05-02T16:10:39.175Z,6.23
2023-05-02T16:13:06.027Z,4.70
2023-05-02T16:15:32.818Z,5.00
2023-05-02T16:17:59.770Z,4.87
2023-05-02T16:20:27.721Z,5.60
2023-05-02T16:22:55.208Z,5.63
2023-05-02T16:25:22.011Z,6.17
2023-05-02T16:27:48.809Z,5.80
2023-05-02T16:30:15.726Z,6.30
2023-05-02T16:32:42.530Z,5.03
2023-05-02T16:35:12.383Z,4.90
2023-05-02T16:37:43.567Z,5.13
2023-05-02T16:40:11.192Z,6.17
2023-05-02T16:42:38.419Z,5.30
2023-05-02T16:45:06.201Z,5.23
2023-05-02T16:47:36.201Z,4.30
2023-05-02T16:50:03.720Z,5.77
2023-05-02T16:52:30.809Z,5.07
2023-05-02T16:54:57.558Z,5.17
2023-05-02T16:57:24.293Z,5.37
2023-05-02T16:59:52.279Z,4.83
2023-05-02T17:02:23.506Z,5.80
2023-05-02T17:04:50.667Z,5.47
2023-05-02T17:07:17.705Z,4.73
2023-05-02T17:09:44.713Z,5.80
2023-05-02T17:12:12.418Z,4.70
2023-05-02T17:14:41.227Z,5.30
2023-05-02T17:17:08.690Z,4.80
2023-05-02T17:19:36.588Z,5.20
2023-05-02T17:22:06.759Z,4.10
2023-05-02T17:24:33.490Z,4.63
2023-05-02T17:27:01.432Z,5.07
2023-05-02T17:29:28.778Z,4.20
2023-05-02T17:31:57.322Z,5.90
2023-05-02T17:34:28.430Z,5.00
2023-05-02T17:36:56.048Z,4.50
2023-05-02T17:39:23.205Z,3.97
2023-05-02T17:41:50.044Z,4.50
2023-05-02T17:44:16.894Z,4.77
2023-05-02T17:46:43.690Z,4.27
2023-05-02T17:49:10.433Z,4.40
2023-05-02T17:51:37.187Z,3.80
2023-05-02T17:54:04.205Z,5.30
2023-05-02T17:56:34.385Z,3.63
2023-05-02T17:59:01.133Z,4.80
2023-05-02T18:01:27.943Z,5.53
2023-05-02T18:03:54.862Z,6.33
2023-05-02T18:06:22.326Z,3.50
2023-05-02T18:08:49.029Z,5.33
2023-05-02T18:11:20.058Z,4.93
2023-05-02T18:13:46.859Z,4.50
2023-05-02T18:16:14.263Z,3.80
2023-05-02T18:18:41.596Z,4.43
2023-05-02T18:21:09.644Z,4.03
2023-05-02T18:23:36.485Z,3.63
2023-05-02T18:26:03.668Z,4.10
2023-05-02T18:28:30.440Z,4.10
2023-05-02T18:30:57.164Z,3.30
2023-05-02T18:33:23.832Z,3.30
2023-05-02T18:35:50.727Z,4.17
2023-05-02T18:38:18.111Z,4.27
2023-05-02T18:40:45.001Z,3.83
2023-05-02T18:43:11.765Z,4.50
2023-05-02T18:45:38.583Z,3.70
2023-05-02T18:48:05.578Z,3.67
2023-05-02T18:50:32.386Z,4.07
2023-05-02T18:52:59.199Z,4.60
2023-05-02T18:55:25.909Z,3.33
2023-05-02T18:57:52.667Z,3.57
2023-05-02T19:00:20.418Z,3.60
2023-05-02T19:02:47.750Z,3.60
2023-05-02T19:05:15.127Z,3.90
2023-05-02T19:07:42.392Z,4.00
2023-05-02T19:10:11.069Z,3.00
2023-05-02T19:12:38.259Z,4.10
2023-05-02T19:15:06.654Z,3.60
2023-05-02T19:17:33.677Z,3.43
2023-05-02T19:20:01.213Z,4.13
2023-05-02T19:22:28.080Z,3.47
2023-05-02T19:24:55.215Z,4.00
2023-05-02T19:27:21.994Z,4.07
2023-05-02T19:29:52.419Z,4.23
2023-05-02T19:32:19.194Z,3.53
2023-05-02T19:34:46.039Z,3.80
2023-05-02T19:37:12.769Z,4.53
2023-05-02T19:39:39.472Z,3.50
2023-05-02T19:42:06.235Z,3.73
2023-05-02T19:44:33.003Z,3.70
2023-05-02T19:46:59.735Z,4.00
2023-05-02T19:49:26.443Z,3.27
2023-05-02T19:51:53.197Z,2.90
2023-05-02T19:54:19.979Z,3.50
2023-05-02T19:56:49.015Z,3.00
2023-05-02T19:59:15.866Z,2.70
2023-05-02T20:01:43.005Z,3.27
2023-05-02T20:04:10.042Z,3.90
2023-05-02T20:06:36.819Z,4.53
2023-05-02T20:09:03.637Z,4.30
2023-05-02T20:11:30.935Z,3.40
2023-05-02T20:13:57.704Z,3.90
2023-05-02T20:16:24.772Z,3.70
2023-05-02T20:18:52.774Z,3.50
2023-05-02T20:21:19.525Z,3.17
2023-05-02T20:23:46.451Z,3.00
2023-05-02T20:26:14.193Z,3.10
2023-05-02T20:28:40.945Z,3.23
2023-05-02T20:31:08.126Z,3.23
2023-05-02T20:33:44.582Z,3.43
2023-05-02T20:36:13.464Z,3.80
2023-05-02T20:38:42.545Z,3.57
2023-05-02T20:41:12.596Z,3.50
2023-05-02T20:43:41.535Z,3.40
2023-05-02T20:46:13.643Z,3.60
2023-05-02T20:48:40.407Z,4.27
2023-05-02T20:51:08.697Z,3.97
2023-05-02T20:53:39.093Z,3.50
2023-05-02T20:56:06.717Z,3.03
2023-05-02T20:58:33.755Z,3.17
2023-05-02T21:01:00.833Z,2.53
2023-05-02T21:03:27.882Z,3.40
2023-05-02T21:05:56.534Z,3.07
2023-05-02T21:08:23.623Z,2.30
2023-05-02T21:10:51.419Z,2.67
2023-05-02T21:13:18.310Z,2.53
2023-05-02T21:15:45.094Z,3.17
2023-05-02T21:18:11.933Z,2.63
2023-05-02T21:20:41.389Z,3.10
2023-05-02T21:23:11.009Z,2.80
2023-05-02T21:25:38.400Z,2.73
2023-05-02T21:28:05.889Z,2.30
2023-05-02T21:30:32.761Z,2.80
2023-05-02T21:32:59.495Z,2.80
2023-05-02T21:35:26.297Z,2.57
2023-05-02T21:37:53.073Z,2.93
2023-05-02T21:40:19.824Z,2.53
2023-05-02T21:42:46.570Z,2.60
2023-05-02T21:45:13.398Z,2.87
2023-05-02T21:47:40.158Z,2.40
2023-05-02T21:50:07.501Z,2.20
2023-05-02T21:52:34.875Z,2.60
2023-05-02T21:55:01.718Z,2.40
2023-05-02T21:57:29.137Z,2.80
2023-05-02T21:59:55.810Z,3.30
2023-05-02T22:02:23.718Z,2.40
2023-05-02T22:04:50.737Z,3.43
2023-05-02T22:07:17.480Z,2.40
2023-05-02T22:09:44.180Z,2.87
2023-05-02T22:12:10.867Z,2.57
2023-05-02T22:14:45.394Z,3.47
2023-05-02T22:17:13.243Z,2.33
2023-05-02T22:19:40.644Z,3.37
2023-05-02T22:22:07.535Z,3.17
2023-05-02T22:24:34.296Z,2.83
2023-05-02T22:27:01.559Z,2.60
2023-05-02T22:29:29.074Z,3.10
2023-05-02T22:31:55.847Z,2.90
2023-05-02T22:34:23.109Z,3.00
2023-05-02T22:36:50.129Z,3.53
2023-05-02T22:39:16.923Z,2.90
2023-05-02T22:41:43.953Z,2.90
2023-05-02T22:44:11.320Z,2.70
2023-05-02T22:46:38.625Z,2.97
2023-05-02T22:49:07.557Z,3.20
2023-05-02T22:51:34.278Z,2.87
2023-05-02T22:54:01.896Z,2.70
2023-05-02T22:56:28.693Z,2.93
2023-05-02T22:58:55.499Z,3.30
2023-05-02T23:01:22.324Z,2.73
2023-05-02T23:03:49.494Z,3.30
2023-05-02T23:06:16.766Z,3.00
2023-05-02T23:08:43.446Z,3.40
2023-05-02T23:11:10.196Z,3.53
2023-05-02T23:13:36.871Z,3.10
2023-05-02T23:16:04.393Z,3.00
2023-05-02T23:18:31.273Z,2.93
2023-05-02T23:20:57.953Z,3.80
2023-05-02T23:23:24.686Z,3.87
2023-05-02T23:25:51.381Z,3.70
2023-05-02T23:28:18.071Z,3.10
2023-05-02T23:30:45.294Z,3.70
2023-05-02T23:33:12.210Z,3.80
2023-05-02T23:35:39.032Z,3.30
2023-05-02T23:38:07.987Z,3.60
2023-05-02T23:40:35.009Z,3.73
2023-05-02T23:43:01.853Z,3.70
2023-05-02T23:45:28.558Z,3.00
2023-05-02T23:47:55.893Z,3.50
2023-05-02T23:50:22.593Z,3.30
2023-05-02T23:52:49.342Z,3.10
2023-05-02T23:55:16.164Z,2.90
2023-05-02T23:57:42.888Z,2.70
